Tambon Nuea Khlong, Thailand

12:52 PM ICT on February 11, 2016 (GMT +0700)
Ao Nang, Krabi | | Change Station
CLOSE
Current Station
Personal Weather Station
Location: Ao Nang, Krabi
Elevation: 177 ft
Nearby Weather Stations

Elev 177 ft 8.05 °N, 98.84 °E | Updated 2 minutes ago

Mostly Cloudy
Mostly Cloudy
90.5 °F
Feels Like 100 °F
N
5.0
Wind Variable Wind from NNE
Gusts 5.0 mph

Today
High -- | Low -- °F
--% Chance of Precip.
Yesterday
High -- | Low -- °F
Precip. -- in
Pressure 29.83 in
Visibility 5.0 miles
Clouds Few 2000 ft
Scattered Clouds 12000 ft
Mostly Cloudy 30000 ft
Heat Index 100 °F
Dew Point 74 °F
Humidity 58%
Rainfall 0.00 in
Snow Depth Not available.
6:43 AM 6:33 PM
Waxing Crescent, 9% visible
METAR VTSP 110530Z 08009KT 8000 FEW020 SCT120 BKN300 31/22 Q1010 A2983 NOSIG
Pressure 29.83 in
Visibility 5.0 miles
Clouds Few 2000 ft
Scattered Clouds 12000 ft
Mostly Cloudy 30000 ft
Heat Index 100 °F
Dew Point 74 °F
Humidity 58%
Rainfall 0.00 in
Snow Depth Not available.
6:43 AM 6:33 PM
Waxing Crescent, 9% visible
METAR VTSP 110530Z 08009KT 8000 FEW020 SCT120 BKN300 31/22 Q1010 A2983 NOSIG

10-Day Weather Forecast

No radar image for this location.
×

Almanac

Astronomy

Feb. 11, 2016 Rise Set
Actual Time
Civil Twilight
Nautical Twilight
Astronomical Twilight
Moon
Length of Visible Light
Length of Day
Tomorrow will be .
, % of the Moon is Illuminated

Today's Extremes

Country Highs Country Lows

Community

WunderPhotos

Upload Photos

1,892,023 photos uploaded!

WunderBlog® & News

Nearby

Air Quality

  Air Quality AQ Index Pollutant
Not available.

Snow Depth

Station Depth Elevation

Earthquake Activity

City Distance Mag. Time & Date
Minimum magnitude displayed is 2.5.

Coastal Water Temperatures

Place Temperature

Stations

Nearby Weather Stations

Station Location Temp. Windchill Dew Point Humidity Wind Precip. Elev Updated Type